Time;durP1;ratioP1;P1;durP2;ratioP2;P2;SDS_P1;SDS_P2;PMS_P1;PMS_P2;Temp;Humidity;BMP_temperature;BMP_pressure;BME280_temperature;BME280_humidity;BME280_pressure;Samples;Min_cycle;Max_cycle;Signal;HPM_P1;HPM_P2
2024/01/08 00:02:22;;;;;;;15.10;7.53;;;;;;;;;;5073722;28;20315;-82
2024/01/08 00:04:49;;;;;;;13.13;7.03;;;;;;;;;;5073756;28;20203;-82
2024/01/08 00:07:17;;;;;;;16.57;7.50;;;;;;;;;;5073786;28;20609;-81
2024/01/08 00:09:44;;;;;;;17.60;8.27;;;;;;;;;;5073030;28;20195;-86
2024/01/08 00:12:11;;;;;;;20.97;8.50;;;;;;;;;;5073473;28;20198;-87
2024/01/08 00:14:39;;;;;;;16.90;6.13;;;;;;;;;;5073163;28;20733;-87
2024/01/08 00:17:07;;;;;;;16.23;7.80;;;;;;;;;;5056889;28;20191;-87
2024/01/08 00:19:34;;;;;;;18.20;7.60;;;;;;;;;;5072953;28;20602;-87
2024/01/08 00:22:01;;;;;;;12.20;7.67;;;;;;;;;;5056224;28;20222;-84
2024/01/08 00:24:28;;;;;;;15.90;7.63;;;;;;;;;;5073702;28;20223;-85
2024/01/08 00:26:55;;;;;;;15.77;8.00;;;;;;;;;;5073939;28;20204;-84
2024/01/08 00:29:23;;;;;;;15.40;6.97;;;;;;;;;;5073120;28;20199;-84
2024/01/08 00:31:50;;;;;;;20.80;7.47;;;;;;;;;;5056563;28;20252;-85
2024/01/08 00:34:17;;;;;;;21.77;8.70;;;;;;;;;;5072420;28;20219;-85
2024/01/08 00:36:46;;;;;;;17.37;7.97;;;;;;;;;;5074049;28;20172;-84
2024/01/08 00:39:13;;;;;;;14.20;6.83;;;;;;;;;;5073084;28;20188;-84
2024/01/08 00:41:40;;;;;;;16.67;7.33;;;;;;;;;;5077447;28;20202;-82
2024/01/08 00:44:07;;;;;;;17.23;6.77;;;;;;;;;;5078856;28;20566;-83
2024/01/08 00:46:34;;;;;;;16.30;7.87;;;;;;;;;;5061705;28;20195;-82
2024/01/08 00:49:01;;;;;;;14.50;6.43;;;;;;;;;;5074137;28;20655;-88
2024/01/08 00:51:29;;;;;;;16.53;7.40;;;;;;;;;;5040176;28;20195;-87
2024/01/08 00:53:56;;;;;;;17.23;7.80;;;;;;;;;;5055733;28;20188;-87
2024/01/08 00:56:24;;;;;;;18.83;6.20;;;;;;;;;;5039376;28;20240;-87
2024/01/08 00:58:51;;;;;;;16.70;7.07;;;;;;;;;;5055985;28;20198;-87
2024/01/08 01:01:18;;;;;;;11.10;5.57;;;;;;;;;;5072606;28;20198;-82
2024/01/08 01:03:45;;;;;;;15.93;6.77;;;;;;;;;;5072164;28;20225;-82
2024/01/08 01:06:19;;;;;;;17.10;7.93;;;;;;;;;;5073520;28;20195;-83
2024/01/08 01:08:46;;;;;;;15.27;6.73;;;;;;;;;;5072542;28;20194;-83
2024/01/08 01:11:17;;;;;;;10.17;6.40;;;;;;;;;;5073920;28;20199;-83
2024/01/08 01:13:44;;;;;;;16.73;7.63;;;;;;;;;;5072332;28;20186;-83
2024/01/08 01:16:11;;;;;;;13.17;7.33;;;;;;;;;;5072119;28;20206;-83
2024/01/08 01:18:38;;;;;;;12.13;7.00;;;;;;;;;;5073599;28;20199;-84
2024/01/08 01:21:05;;;;;;;14.20;6.33;;;;;;;;;;5073372;28;20199;-83
2024/01/08 01:23:32;;;;;;;14.93;7.00;;;;;;;;;;5073112;28;20211;-82
2024/01/08 01:26:00;;;;;;;13.57;6.90;;;;;;;;;;5073436;28;20191;-83
2024/01/08 01:28:27;;;;;;;14.47;7.10;;;;;;;;;;5072480;28;20196;-83
2024/01/08 01:30:54;;;;;;;14.17;6.90;;;;;;;;;;5055307;28;20199;-81
2024/01/08 01:33:21;;;;;;;13.43;7.47;;;;;;;;;;5073134;28;20282;-81
2024/01/08 01:35:48;;;;;;;18.37;7.93;;;;;;;;;;5072786;28;20240;-82
2024/01/08 01:38:15;;;;;;;11.23;7.00;;;;;;;;;;5072914;28;20210;-82
2024/01/08 01:40:46;;;;;;;12.43;6.53;;;;;;;;;;5073339;28;20196;-82
2024/01/08 01:43:33;;;;;;;18.43;7.33;;;;;;;;;;5072189;28;20219;-85
2024/01/08 01:46:06;;;;;;;9.70;5.97;;;;;;;;;;5072523;28;20184;-85
2024/01/08 01:48:33;;;;;;;14.50;7.03;;;;;;;;;;5072106;28;20181;-81
2024/01/08 01:51:02;;;;;;;15.10;6.77;;;;;;;;;;5073053;28;20195;-81
2024/01/08 01:53:29;;;;;;;12.90;8.00;;;;;;;;;;5055507;28;20245;-81
2024/01/08 01:55:57;;;;;;;15.80;7.40;;;;;;;;;;5076687;28;20196;-81
2024/01/08 01:58:24;;;;;;;11.27;6.03;;;;;;;;;;5075218;28;20656;-81
2024/01/08 02:00:52;;;;;;;11.73;6.57;;;;;;;;;;5076901;28;20191;-81
2024/01/08 02:03:19;;;;;;;11.27;6.47;;;;;;;;;;5076908;28;20230;-82
2024/01/08 02:05:47;;;;;;;13.23;6.87;;;;;;;;;;5076623;28;20257;-82
2024/01/08 02:08:14;;;;;;;17.43;7.83;;;;;;;;;;5076542;28;20723;-84
2024/01/08 02:10:42;;;;;;;13.93;7.13;;;;;;;;;;5075411;28;20208;-81
2024/01/08 02:13:09;;;;;;;10.57;5.80;;;;;;;;;;5075146;28;20196;-83
2024/01/08 02:15:37;;;;;;;10.53;7.10;;;;;;;;;;5075130;28;20191;-83
2024/01/08 02:18:04;;;;;;;11.63;6.13;;;;;;;;;;5074869;28;20286;-83
2024/01/08 02:20:31;;;;;;;16.40;7.23;;;;;;;;;;5076182;28;20199;-83
2024/01/08 02:22:58;;;;;;;15.10;7.53;;;;;;;;;;5076242;28;20246;-83
2024/01/08 02:25:26;;;;;;;10.60;6.40;;;;;;;;;;5076512;28;20192;-84
2024/01/08 02:27:53;;;;;;;14.40;5.60;;;;;;;;;;5058367;28;20226;-84
2024/01/08 02:30:20;;;;;;;10.70;6.07;;;;;;;;;;5075232;28;20246;-86
2024/01/08 02:32:48;;;;;;;12.13;6.97;;;;;;;;;;5075271;28;20191;-86
2024/01/08 02:35:15;;;;;;;13.07;6.57;;;;;;;;;;5075681;28;20226;-82
2024/01/08 02:37:42;;;;;;;9.40;6.27;;;;;;;;;;5076175;28;20531;-84
2024/01/08 02:40:11;;;;;;;14.97;7.43;;;;;;;;;;5075936;28;20202;-83
2024/01/08 02:42:40;;;;;;;12.00;6.40;;;;;;;;;;5074497;28;20298;-83
2024/01/08 02:45:08;;;;;;;16.70;7.60;;;;;;;;;;5076063;28;20198;-84
2024/01/08 02:47:37;;;;;;;16.30;6.53;;;;;;;;;;5075428;28;20241;-84
2024/01/08 02:50:06;;;;;;;19.10;7.93;;;;;;;;;;5074578;28;20196;-84
2024/01/08 02:52:33;;;;;;;14.17;7.00;;;;;;;;;;5075067;28;20198;-84
2024/01/08 02:55:01;;;;;;;11.80;6.47;;;;;;;;;;5074676;28;20200;-84
2024/01/08 02:57:29;;;;;;;13.60;6.70;;;;;;;;;;5075093;28;20195;-84
2024/01/08 02:59:56;;;;;;;16.00;6.97;;;;;;;;;;5074793;28;20249;-84
2024/01/08 03:02:24;;;;;;;14.77;7.00;;;;;;;;;;5075925;28;20206;-84
2024/01/08 03:04:52;;;;;;;13.20;6.97;;;;;;;;;;5058952;28;20205;-83
2024/01/08 03:07:20;;;;;;;15.03;7.13;;;;;;;;;;5073771;28;20680;-84
2024/01/08 03:09:47;;;;;;;15.67;7.43;;;;;;;;;;5078779;28;20675;-84
2024/01/08 03:12:15;;;;;;;14.70;6.60;;;;;;;;;;5075663;28;20214;-84
2024/01/08 03:14:43;;;;;;;16.87;7.37;;;;;;;;;;5075528;28;20625;-83
2024/01/08 03:17:10;;;;;;;15.23;6.77;;;;;;;;;;5074634;28;20256;-83
2024/01/08 03:19:38;;;;;;;14.97;7.40;;;;;;;;;;5075350;28;20199;-85
2024/01/08 03:22:04;;;;;;;16.37;7.20;;;;;;;;;;5057365;28;20203;-87
2024/01/08 03:24:33;;;;;;;12.10;6.27;;;;;;;;;;5057627;28;20222;-84
2024/01/08 03:27:00;;;;;;;15.13;6.60;;;;;;;;;;5073938;28;20191;-84
2024/01/08 03:29:28;;;;;;;14.47;6.67;;;;;;;;;;5074859;28;20196;-84
2024/01/08 03:31:55;;;;;;;8.47;5.27;;;;;;;;;;5074290;28;20194;-85
2024/01/08 03:34:22;;;;;;;12.07;6.03;;;;;;;;;;5075252;28;20264;-86
2024/01/08 03:36:49;;;;;;;15.90;6.60;;;;;;;;;;5074250;28;20618;-86
2024/01/08 03:39:17;;;;;;;15.13;6.50;;;;;;;;;;5073805;28;20195;-85
2024/01/08 03:41:44;;;;;;;13.13;6.43;;;;;;;;;;5056500;28;20199;-85
2024/01/08 03:44:13;;;;;;;15.23;6.77;;;;;;;;;;5073780;28;20216;-84
2024/01/08 03:46:40;;;;;;;13.60;6.97;;;;;;;;;;5056975;28;20201;-84
2024/01/08 03:49:08;;;;;;;14.27;6.50;;;;;;;;;;5074410;28;20206;-84
2024/01/08 03:51:35;;;;;;;15.20;5.73;;;;;;;;;;5073706;28;20195;-84
2024/01/08 03:54:02;;;;;;;15.50;6.83;;;;;;;;;;5056951;28;20203;-84
2024/01/08 03:56:30;;;;;;;12.60;6.70;;;;;;;;;;5073697;28;20195;-85
2024/01/08 03:58:57;;;;;;;11.37;6.37;;;;;;;;;;5074298;28;20203;-85
2024/01/08 04:01:24;;;;;;;17.53;6.60;;;;;;;;;;5073364;28;20546;-84
2024/01/08 04:03:51;;;;;;;19.80;9.07;;;;;;;;;;5072742;28;20230;-84
2024/01/08 04:06:18;;;;;;;15.73;6.83;;;;;;;;;;5056775;28;20195;-84
2024/01/08 04:08:46;;;;;;;12.80;5.70;;;;;;;;;;5072793;28;20203;-84
2024/01/08 04:11:13;;;;;;;10.73;5.80;;;;;;;;;;5073329;28;20202;-84
2024/01/08 04:13:40;;;;;;;13.27;7.17;;;;;;;;;;5074074;28;20199;-84
2024/01/08 04:16:07;;;;;;;14.17;7.10;;;;;;;;;;5073279;28;20282;-86
2024/01/08 04:18:35;;;;;;;10.03;5.43;;;;;;;;;;5072234;28;20195;-87
2024/01/08 04:21:02;;;;;;;12.40;6.50;;;;;;;;;;5073862;28;20200;-87
2024/01/08 04:23:29;;;;;;;12.93;6.40;;;;;;;;;;5073768;28;20226;-84
2024/01/08 04:25:56;;;;;;;16.80;7.13;;;;;;;;;;5074290;28;20219;-85
2024/01/08 04:28:24;;;;;;;12.90;6.67;;;;;;;;;;5056178;28;20257;-85
2024/01/08 04:30:51;;;;;;;13.30;5.47;;;;;;;;;;5073391;28;20207;-85
2024/01/08 04:33:18;;;;;;;13.17;6.73;;;;;;;;;;5073140;28;20191;-85
2024/01/08 04:35:45;;;;;;;13.03;6.67;;;;;;;;;;5074048;28;20621;-85
2024/01/08 04:38:13;;;;;;;11.50;6.13;;;;;;;;;;5074228;28;20192;-85
2024/01/08 04:40:40;;;;;;;11.30;6.07;;;;;;;;;;5072258;28;20199;-81
2024/01/08 04:43:07;;;;;;;14.17;5.97;;;;;;;;;;5071816;28;20257;-86
2024/01/08 04:45:34;;;;;;;9.80;5.53;;;;;;;;;;5073993;28;20198;-84
2024/01/08 04:48:03;;;;;;;12.70;5.87;;;;;;;;;;5074928;28;20638;-84
2024/01/08 04:50:30;;;;;;;9.57;5.47;;;;;;;;;;5074734;28;20226;-84
2024/01/08 04:52:58;;;;;;;14.73;6.47;;;;;;;;;;5074792;28;20195;-84
2024/01/08 04:55:25;;;;;;;13.23;6.30;;;;;;;;;;5074474;28;20282;-85
2024/01/08 04:57:52;;;;;;;14.87;7.40;;;;;;;;;;5075643;28;20230;-84
2024/01/08 05:00:19;;;;;;;16.10;5.87;;;;;;;;;;5075671;28;20217;-84
2024/01/08 05:02:46;;;;;;;15.33;7.37;;;;;;;;;;5073558;28;20191;-81
2024/01/08 05:05:13;;;;;;;12.60;6.50;;;;;;;;;;5063621;28;20286;-81
2024/01/08 05:07:41;;;;;;;12.63;6.40;;;;;;;;;;5055569;28;20230;-82
2024/01/08 05:10:08;;;;;;;9.63;6.13;;;;;;;;;;5073341;28;20229;-82
2024/01/08 05:12:35;;;;;;;11.03;5.67;;;;;;;;;;5073724;28;20206;-83
2024/01/08 05:15:03;;;;;;;8.83;5.40;;;;;;;;;;5075567;28;20317;-82
2024/01/08 05:17:30;;;;;;;10.90;6.13;;;;;;;;;;5076059;28;20699;-82
2024/01/08 05:19:57;;;;;;;11.80;5.23;;;;;;;;;;5072624;28;20226;-82
2024/01/08 05:22:25;;;;;;;10.30;5.03;;;;;;;;;;5072857;28;20565;-84
2024/01/08 05:24:52;;;;;;;9.20;5.20;;;;;;;;;;5072142;28;20227;-83
2024/01/08 05:27:19;;;;;;;10.70;6.17;;;;;;;;;;5073083;28;20215;-84
2024/01/08 05:29:46;;;;;;;9.13;5.37;;;;;;;;;;5075527;28;20222;-84
2024/01/08 05:32:13;;;;;;;19.30;6.57;;;;;;;;;;5078147;28;20215;-83
2024/01/08 05:34:41;;;;;;;8.70;5.20;;;;;;;;;;5077471;28;20235;-84
2024/01/08 05:37:09;;;;;;;9.20;5.20;;;;;;;;;;5076959;28;20231;-84
2024/01/08 05:39:36;;;;;;;9.77;5.30;;;;;;;;;;5075391;28;20234;-85
2024/01/08 05:42:04;;;;;;;10.17;5.20;;;;;;;;;;5075559;28;20594;-84
2024/01/08 05:44:31;;;;;;;12.23;6.43;;;;;;;;;;5076244;28;20227;-85
2024/01/08 05:46:58;;;;;;;11.30;5.93;;;;;;;;;;5075463;28;20629;-81
2024/01/08 05:49:25;;;;;;;14.97;6.90;;;;;;;;;;5075230;28;20227;-84
2024/01/08 05:51:53;;;;;;;11.77;5.67;;;;;;;;;;5056187;28;20653;-81
2024/01/08 05:54:20;;;;;;;11.57;6.00;;;;;;;;;;5054633;28;20238;-84
2024/01/08 05:56:47;;;;;;;14.27;5.57;;;;;;;;;;5054344;28;20231;-84
2024/01/08 05:59:14;;;;;;;9.00;5.20;;;;;;;;;;5058095;28;20577;-84
2024/01/08 06:01:42;;;;;;;8.93;5.33;;;;;;;;;;5058830;28;20232;-84
2024/01/08 06:04:10;;;;;;;11.83;5.30;;;;;;;;;;5055009;28;20234;-79
2024/01/08 06:06:37;;;;;;;23.13;7.70;;;;;;;;;;5055162;28;20723;-82
2024/01/08 06:09:06;;;;;;;11.83;5.90;;;;;;;;;;5055722;28;20216;-80
2024/01/08 06:11:33;;;;;;;10.27;5.90;;;;;;;;;;5054046;28;20239;-82
2024/01/08 06:14:02;;;;;;;10.10;5.43;;;;;;;;;;5054059;28;20220;-81
2024/01/08 06:16:35;;;;;;;13.13;6.50;;;;;;;;;;5037645;28;20211;-82
2024/01/08 06:19:02;;;;;;;11.83;6.53;;;;;;;;;;5055387;28;20231;-81
2024/01/08 06:21:30;;;;;;;11.13;6.33;;;;;;;;;;5054996;28;20208;-81
2024/01/08 06:23:57;;;;;;;10.27;5.57;;;;;;;;;;5054748;28;20219;-82
2024/01/08 06:26:28;;;;;;;15.30;7.37;;;;;;;;;;5056179;28;20196;-82
2024/01/08 06:28:55;;;;;;;9.97;6.67;;;;;;;;;;5056470;28;20192;-81
2024/01/08 06:31:23;;;;;;;15.47;7.03;;;;;;;;;;5056591;28;20192;-82
2024/01/08 06:33:50;;;;;;;10.50;6.20;;;;;;;;;;5056374;28;20196;-81
2024/01/08 06:36:18;;;;;;;10.63;5.27;;;;;;;;;;5055893;28;20196;-81
2024/01/08 06:38:45;;;;;;;11.73;6.90;;;;;;;;;;5055482;28;20246;-82
2024/01/08 06:41:12;;;;;;;10.50;5.97;;;;;;;;;;5036860;28;20195;-81
2024/01/08 06:43:39;;;;;;;15.87;7.60;;;;;;;;;;5053855;28;20223;-82
2024/01/08 06:46:09;;;;;;;10.63;6.63;;;;;;;;;;5055668;28;20197;-82
2024/01/08 06:48:36;;;;;;;14.07;6.93;;;;;;;;;;5055827;28;20200;-82
2024/01/08 06:51:04;;;;;;;12.83;5.80;;;;;;;;;;5055224;28;20200;-82
2024/01/08 06:53:31;;;;;;;15.20;6.77;;;;;;;;;;5056846;28;20196;-81
2024/01/08 06:55:58;;;;;;;17.77;6.53;;;;;;;;;;5055464;28;20653;-82
2024/01/08 06:58:25;;;;;;;14.03;6.50;;;;;;;;;;5055385;28;20196;-82
2024/01/08 07:00:52;;;;;;;16.53;6.90;;;;;;;;;;5055155;28;20249;-81
2024/01/08 07:03:19;;;;;;;17.07;7.27;;;;;;;;;;5055292;28;20319;-82
2024/01/08 07:05:47;;;;;;;22.73;8.60;;;;;;;;;;5036956;28;20667;-81
2024/01/08 07:08:15;;;;;;;21.47;7.60;;;;;;;;;;5054970;28;20568;-81
2024/01/08 07:10:42;;;;;;;16.87;8.17;;;;;;;;;;5054976;28;20200;-81
2024/01/08 07:13:09;;;;;;;17.00;8.03;;;;;;;;;;5055018;28;20200;-82
2024/01/08 07:15:38;;;;;;;18.00;6.63;;;;;;;;;;5054746;28;20191;-82
2024/01/08 07:18:05;;;;;;;11.77;6.50;;;;;;;;;;5054831;28;20200;-81
2024/01/08 07:20:33;;;;;;;15.87;7.63;;;;;;;;;;5054730;28;20199;-82
2024/01/08 07:23:00;;;;;;;14.00;7.40;;;;;;;;;;5055118;28;20196;-81
2024/01/08 07:25:27;;;;;;;14.70;7.70;;;;;;;;;;5053450;28;20220;-81
2024/01/08 07:27:58;;;;;;;10.93;6.07;;;;;;;;;;5053490;28;20207;-81
2024/01/08 07:30:26;;;;;;;19.10;7.57;;;;;;;;;;5054653;28;20196;-81
2024/01/08 07:32:53;;;;;;;16.27;8.07;;;;;;;;;;5054990;28;20203;-81
2024/01/08 07:35:20;;;;;;;13.20;7.40;;;;;;;;;;5054145;28;20587;-81
2024/01/08 07:37:51;;;;;;;12.20;7.50;;;;;;;;;;5054369;28;20196;-81
2024/01/08 07:40:18;;;;;;;15.87;7.70;;;;;;;;;;5054468;28;20587;-82
2024/01/08 07:42:45;;;;;;;12.63;6.20;;;;;;;;;;5054145;28;20200;-81
2024/01/08 07:45:12;;;;;;;13.93;7.27;;;;;;;;;;5054204;28;20219;-81
2024/01/08 07:47:39;;;;;;;19.70;7.80;;;;;;;;;;5054025;28;20214;-82
2024/01/08 07:50:08;;;;;;;16.57;6.93;;;;;;;;;;5054747;28;20192;-81
2024/01/08 07:52:36;;;;;;;18.40;7.17;;;;;;;;;;5053046;28;20680;-81
2024/01/08 07:55:08;;;;;;;12.30;6.57;;;;;;;;;;5053763;28;20599;-82
2024/01/08 07:57:35;;;;;;;18.83;7.93;;;;;;;;;;5056516;28;20218;-83
2024/01/08 08:00:05;;;;;;;15.63;7.43;;;;;;;;;;5054766;28;20199;-81
2024/01/08 08:02:32;;;;;;;18.13;7.60;;;;;;;;;;5054437;28;20188;-81
2024/01/08 08:05:00;;;;;;;15.53;6.97;;;;;;;;;;5053846;28;20220;-80
2024/01/08 08:07:28;;;;;;;20.23;8.40;;;;;;;;;;5053870;28;20196;-81
2024/01/08 08:09:56;;;;;;;17.20;6.93;;;;;;;;;;5052646;28;20193;-81
2024/01/08 08:12:23;;;;;;;15.87;7.83;;;;;;;;;;5053836;28;20204;-81
2024/01/08 08:14:50;;;;;;;10.97;6.90;;;;;;;;;;5053638;28;20196;-81
2024/01/08 08:17:17;;;;;;;18.27;8.97;;;;;;;;;;5053605;28;20239;-81
2024/01/08 08:19:45;;;;;;;15.47;6.30;;;;;;;;;;5053392;28;20258;-81
2024/01/08 08:22:12;;;;;;;12.77;7.00;;;;;;;;;;5053094;28;20334;-81
2024/01/08 08:24:40;;;;;;;14.30;7.07;;;;;;;;;;5054242;28;20216;-81
2024/01/08 08:27:09;;;;;;;17.37;9.00;;;;;;;;;;5052381;28;20231;-81
2024/01/08 08:29:38;;;;;;;13.17;6.93;;;;;;;;;;5053228;28;20235;-82
2024/01/08 08:32:05;;;;;;;17.57;6.83;;;;;;;;;;5053546;28;20649;-80
2024/01/08 08:34:33;;;;;;;17.93;7.40;;;;;;;;;;5035666;28;20232;-82
2024/01/08 08:37:00;;;;;;;16.17;7.70;;;;;;;;;;5052166;28;20254;-81
2024/01/08 08:39:32;;;;;;;24.80;7.93;;;;;;;;;;5053224;28;20261;-81
2024/01/08 08:41:58;;;;;;;15.40;7.40;;;;;;;;;;5035795;28;20203;-81
2024/01/08 08:44:26;;;;;;;10.47;5.33;;;;;;;;;;5053066;28;20559;-81
2024/01/08 08:46:53;;;;;;;20.27;8.37;;;;;;;;;;5051622;28;20196;-81
2024/01/08 08:49:20;;;;;;;15.23;8.30;;;;;;;;;;5052916;28;20207;-81
2024/01/08 08:51:48;;;;;;;11.03;5.93;;;;;;;;;;5051623;28;20563;-81
2024/01/08 08:54:15;;;;;;;12.87;6.60;;;;;;;;;;5052745;28;20204;-81
2024/01/08 08:56:42;;;;;;;15.43;6.83;;;;;;;;;;5053147;28;20192;-81
2024/01/08 08:59:09;;;;;;;18.87;8.57;;;;;;;;;;5053121;28;20238;-81
2024/01/08 09:01:36;;;;;;;11.83;6.77;;;;;;;;;;5051585;28;20250;-81
2024/01/08 09:04:04;;;;;;;16.27;7.40;;;;;;;;;;5053934;28;20220;-81
2024/01/08 09:06:33;;;;;;;15.30;7.77;;;;;;;;;;5056789;28;20664;-81
2024/01/08 09:09:02;;;;;;;14.47;6.57;;;;;;;;;;5057060;28;20199;-81
2024/01/08 09:11:29;;;;;;;16.47;8.43;;;;;;;;;;5055867;28;20206;-81
2024/01/08 09:13:56;;;;;;;14.03;6.63;;;;;;;;;;5056938;28;20649;-81
2024/01/08 09:16:26;;;;;;;17.70;6.90;;;;;;;;;;5055401;28;20195;-81
2024/01/08 09:18:53;;;;;;;13.83;5.33;;;;;;;;;;5058208;28;20257;-81
2024/01/08 09:21:20;;;;;;;12.10;5.73;;;;;;;;;;5057174;28;20283;-82
2024/01/08 09:23:48;;;;;;;14.77;7.30;;;;;;;;;;5055142;28;20222;-81
2024/01/08 09:26:15;;;;;;;11.30;6.70;;;;;;;;;;5056389;28;20228;-81
2024/01/08 09:28:43;;;;;;;14.97;7.27;;;;;;;;;;5056388;28;20254;-81
2024/01/08 09:31:10;;;;;;;13.30;6.67;;;;;;;;;;5056664;28;20260;-81
2024/01/08 09:33:38;;;;;;;12.90;6.17;;;;;;;;;;5056305;28;20561;-81
2024/01/08 09:36:05;;;;;;;12.00;7.13;;;;;;;;;;5056641;28;20980;-81
2024/01/08 09:38:32;;;;;;;13.63;5.73;;;;;;;;;;5056180;28;20649;-81
2024/01/08 09:40:59;;;;;;;9.07;5.63;;;;;;;;;;5056176;28;20615;-80
2024/01/08 09:43:35;;;;;;;13.47;6.73;;;;;;;;;;5055913;28;20675;-82
2024/01/08 09:46:05;;;;;;;14.67;7.13;;;;;;;;;;5054877;28;20216;-81
2024/01/08 09:48:36;;;;;;;11.73;6.47;;;;;;;;;;5056029;28;20215;-81
2024/01/08 09:51:03;;;;;;;16.67;7.37;;;;;;;;;;5054953;28;20203;-81
2024/01/08 09:53:32;;;;;;;13.13;7.20;;;;;;;;;;5055187;28;20653;-81
2024/01/08 09:56:00;;;;;;;21.00;9.77;;;;;;;;;;5054802;28;20223;-81
2024/01/08 09:58:27;;;;;;;16.10;7.40;;;;;;;;;;5055914;28;20192;-81
2024/01/08 10:00:54;;;;;;;13.07;7.63;;;;;;;;;;5056326;28;20246;-81
2024/01/08 10:03:23;;;;;;;20.53;7.80;;;;;;;;;;5056428;28;20192;-81
2024/01/08 10:05:50;;;;;;;19.70;7.90;;;;;;;;;;5056764;28;20306;-81
2024/01/08 10:08:18;;;;;;;14.87;6.70;;;;;;;;;;5056979;28;20188;-80
2024/01/08 10:10:46;;;;;;;19.80;8.83;;;;;;;;;;5055832;28;20231;-81
2024/01/08 10:13:14;;;;;;;20.90;6.67;;;;;;;;;;5055945;28;20253;-81
2024/01/08 10:15:47;;;;;;;19.37;7.77;;;;;;;;;;5055198;28;20216;-81
2024/01/08 10:18:16;;;;;;;16.53;7.97;;;;;;;;;;5055713;28;20200;-81
2024/01/08 10:20:44;;;;;;;16.07;7.90;;;;;;;;;;5056869;28;20223;-81
2024/01/08 10:23:16;;;;;;;12.33;7.43;;;;;;;;;;5056216;28;20223;-81
2024/01/08 10:25:51;;;;;;;15.13;7.83;;;;;;;;;;5055241;28;20204;-81
2024/01/08 10:28:19;;;;;;;14.00;6.90;;;;;;;;;;5054864;28;20191;-81
2024/01/08 10:30:47;;;;;;;19.20;7.73;;;;;;;;;;5055529;28;20204;-81
2024/01/08 10:33:16;;;;;;;17.87;7.73;;;;;;;;;;5054810;28;20270;-81
2024/01/08 10:35:44;;;;;;;13.60;7.77;;;;;;;;;;5054874;28;20232;-81
2024/01/08 10:38:12;;;;;;;16.57;7.73;;;;;;;;;;5055394;28;20200;-81
2024/01/08 10:40:39;;;;;;;12.57;6.30;;;;;;;;;;5055043;28;20222;-80
2024/01/08 10:43:07;;;;;;;17.27;9.13;;;;;;;;;;5053714;28;20257;-81
2024/01/08 10:45:34;;;;;;;14.93;7.03;;;;;;;;;;5054129;28;20422;-81
2024/01/08 10:48:11;;;;;;;16.50;7.00;;;;;;;;;;5055933;28;20219;-81
2024/01/08 10:50:39;;;;;;;12.57;6.03;;;;;;;;;;5053838;28;20207;-80
2024/01/08 10:53:11;;;;;;;14.30;7.20;;;;;;;;;;5054319;28;20656;-81
2024/01/08 10:55:41;;;;;;;18.30;7.20;;;;;;;;;;5037485;28;20199;-82
2024/01/08 10:58:09;;;;;;;13.20;7.00;;;;;;;;;;5037194;28;20551;-82
2024/01/08 11:00:36;;;;;;;10.97;5.47;;;;;;;;;;5054153;28;20232;-80
2024/01/08 11:03:03;;;;;;;15.70;7.93;;;;;;;;;;5053356;28;20212;-81
2024/01/08 11:05:36;;;;;;;15.73;6.93;;;;;;;;;;5053437;28;20216;-81
2024/01/08 11:08:03;;;;;;;13.50;6.73;;;;;;;;;;5053326;28;20731;-81
2024/01/08 11:10:32;;;;;;;13.97;7.33;;;;;;;;;;5054326;28;20200;-80
2024/01/08 11:12:59;;;;;;;16.63;7.03;;;;;;;;;;5054022;28;20562;-80
2024/01/08 11:15:27;;;;;;;15.03;6.93;;;;;;;;;;5053155;28;20531;-80
2024/01/08 11:17:58;;;;;;;17.73;6.87;;;;;;;;;;5052817;28;20646;-80
2024/01/08 11:20:45;;;;;;;13.50;6.07;;;;;;;;;;5053638;28;20204;-81
2024/01/08 11:23:31;;;;;;;11.40;6.37;;;;;;;;;;5053044;28;20204;-80
2024/01/08 11:26:04;;;;;;;12.20;5.77;;;;;;;;;;5053927;28;20292;-80
2024/01/08 11:28:32;;;;;;;17.10;7.23;;;;;;;;;;5052251;28;20224;-80
2024/01/08 11:31:21;;;;;;;15.43;7.23;;;;;;;;;;5052733;28;20622;-80
2024/01/08 11:34:25;;;;;;;17.57;7.70;;;;;;;;;;5052399;28;20614;-81
2024/01/08 11:37:12;;;;;;;12.37;6.17;;;;;;;;;;5052405;28;20206;-80
2024/01/08 11:39:40;;;;;;;12.13;5.60;;;;;;;;;;5052932;28;20192;-80
2024/01/08 11:42:08;;;;;;;17.77;7.17;;;;;;;;;;5053972;28;20203;-80
2024/01/08 11:44:35;;;;;;;9.63;6.30;;;;;;;;;;5053038;28;20199;-80
2024/01/08 11:47:03;;;;;;;17.80;6.40;;;;;;;;;;5053199;28;20224;-81
2024/01/08 11:49:30;;;;;;;11.70;6.57;;;;;;;;;;5053889;28;20203;-81
2024/01/08 11:52:00;;;;;;;13.23;6.13;;;;;;;;;;5052324;28;20199;-81
2024/01/08 11:54:27;;;;;;;16.83;7.17;;;;;;;;;;5053201;28;20541;-80
2024/01/08 11:56:55;;;;;;;13.77;5.97;;;;;;;;;;5053128;28;20203;-82
2024/01/08 11:59:32;;;;;;;11.90;7.00;;;;;;;;;;5052169;28;20207;-79
2024/01/08 12:02:14;;;;;;;14.23;6.57;;;;;;;;;;5051997;28;20675;-81
2024/01/08 12:04:42;;;;;;;16.77;7.73;;;;;;;;;;5053281;28;20587;-81
2024/01/08 12:07:11;;;;;;;9.83;5.70;;;;;;;;;;5035505;28;20242;-80
2024/01/08 12:09:39;;;;;;;14.23;7.10;;;;;;;;;;5052380;28;20640;-80
2024/01/08 12:12:08;;;;;;;13.23;5.90;;;;;;;;;;5052735;28;20214;-79
2024/01/08 12:14:36;;;;;;;12.23;6.53;;;;;;;;;;5051667;28;20207;-80
2024/01/08 12:17:04;;;;;;;14.67;6.77;;;;;;;;;;5052917;28;20215;-79
2024/01/08 12:19:40;;;;;;;17.90;6.73;;;;;;;;;;5051990;28;20208;-79
2024/01/08 12:22:11;;;;;;;13.90;7.63;;;;;;;;;;5053014;28;20208;-79
2024/01/08 12:24:40;;;;;;;13.33;6.33;;;;;;;;;;5052983;28;20253;-82
2024/01/08 12:27:07;;;;;;;12.70;6.70;;;;;;;;;;5051413;28;20235;-81
2024/01/08 12:29:39;;;;;;;10.37;5.07;;;;;;;;;;5052807;28;20200;-80
2024/01/08 12:32:08;;;;;;;13.70;5.97;;;;;;;;;;5053144;28;20200;-81
2024/01/08 12:34:42;;;;;;;8.70;5.10;;;;;;;;;;5052907;28;20240;-82
2024/01/08 12:37:14;;;;;;;13.57;6.27;;;;;;;;;;5052733;28;20220;-79
2024/01/08 12:39:41;;;;;;;14.97;6.93;;;;;;;;;;5051140;28;20661;-81
2024/01/08 12:42:18;;;;;;;13.63;6.40;;;;;;;;;;5052303;28;20203;-82
2024/01/08 12:44:50;;;;;;;14.47;6.13;;;;;;;;;;5054356;28;20207;-81
2024/01/08 12:47:17;;;;;;;18.47;7.73;;;;;;;;;;5053939;28;20302;-81
2024/01/08 12:49:44;;;;;;;13.90;7.00;;;;;;;;;;5052461;28;20196;-80
2024/01/08 12:52:12;;;;;;;13.90;6.17;;;;;;;;;;5052886;28;20257;-80
2024/01/08 12:54:41;;;;;;;12.47;5.70;;;;;;;;;;5052622;28;20192;-80
2024/01/08 12:57:10;;;;;;;14.70;6.83;;;;;;;;;;5051818;28;20196;-81
2024/01/08 12:59:50;;;;;;;14.60;6.20;;;;;;;;;;5051295;28;20649;-80
2024/01/08 13:02:18;;;;;;;9.87;6.03;;;;;;;;;;5060301;28;20583;-80
2024/01/08 13:04:49;;;;;;;12.10;5.97;;;;;;;;;;5071397;28;20629;-80
2024/01/08 13:07:16;;;;;;;13.60;5.63;;;;;;;;;;5072277;28;20207;-80
2024/01/08 13:09:44;;;;;;;13.90;5.60;;;;;;;;;;5072403;28;20691;-80
2024/01/08 13:12:11;;;;;;;11.50;5.93;;;;;;;;;;5071641;28;20215;-80
2024/01/08 13:14:38;;;;;;;13.27;6.40;;;;;;;;;;5071543;28;20202;-80
2024/01/08 13:17:05;;;;;;;14.63;6.53;;;;;;;;;;5071985;28;20200;-81
2024/01/08 13:19:34;;;;;;;15.03;6.83;;;;;;;;;;5072092;28;20298;-80
2024/01/08 13:22:04;;;;;;;16.10;7.07;;;;;;;;;;5072195;28;20226;-80
2024/01/08 13:24:32;;;;;;;11.43;6.63;;;;;;;;;;5072132;28;20207;-80
2024/01/08 13:26:59;;;;;;;15.03;7.03;;;;;;;;;;5072343;28;20215;-80
2024/01/08 13:29:26;;;;;;;17.43;6.77;;;;;;;;;;5071867;28;20219;-80
2024/01/08 13:31:54;;;;;;;11.97;5.97;;;;;;;;;;5072060;28;20602;-80
2024/01/08 13:34:21;;;;;;;10.33;5.70;;;;;;;;;;5071951;28;21363;-80
2024/01/08 13:36:48;;;;;;;10.70;5.57;;;;;;;;;;5072300;28;20241;-80
2024/01/08 13:39:15;;;;;;;15.03;7.07;;;;;;;;;;5071593;28;20204;-80
2024/01/08 13:41:42;;;;;;;16.70;6.60;;;;;;;;;;5071014;28;20222;-80
2024/01/08 13:44:10;;;;;;;20.63;7.57;;;;;;;;;;5070735;28;20199;-80
2024/01/08 13:46:38;;;;;;;15.67;6.13;;;;;;;;;;5071892;28;20218;-80
2024/01/08 13:49:05;;;;;;;17.63;6.57;;;;;;;;;;5071735;28;20646;-80
2024/01/08 13:51:33;;;;;;;16.70;6.03;;;;;;;;;;5073210;28;20213;-80
2024/01/08 13:54:05;;;;;;;15.10;7.77;;;;;;;;;;5055258;28;20234;-80
2024/01/08 13:56:34;;;;;;;14.87;7.10;;;;;;;;;;5069693;28;20766;-80
2024/01/08 13:59:01;;;;;;;16.93;6.57;;;;;;;;;;5054980;28;20232;-80
2024/01/08 14:01:28;;;;;;;12.33;5.73;;;;;;;;;;5074909;28;20234;-80
2024/01/08 14:03:55;;;;;;;17.60;8.30;;;;;;;;;;5071313;28;20240;-80
2024/01/08 14:06:23;;;;;;;15.23;6.37;;;;;;;;;;5065998;28;20238;-81
2024/01/08 14:08:50;;;;;;;12.73;6.27;;;;;;;;;;5055215;28;20235;-80
2024/01/08 14:11:17;;;;;;;16.20;7.70;;;;;;;;;;5054881;28;20231;-80
2024/01/08 14:13:44;;;;;;;15.17;7.60;;;;;;;;;;5055269;28;20569;-80
2024/01/08 14:16:12;;;;;;;16.23;7.47;;;;;;;;;;5064104;28;20215;-80
2024/01/08 14:18:40;;;;;;;17.13;7.40;;;;;;;;;;5071957;28;20725;-80
2024/01/08 14:21:08;;;;;;;16.37;6.17;;;;;;;;;;5074167;28;20231;-80
2024/01/08 14:23:35;;;;;;;16.20;7.33;;;;;;;;;;5074696;28;20673;-80
2024/01/08 14:26:03;;;;;;;15.10;6.67;;;;;;;;;;5074530;28;20227;-80
2024/01/08 14:28:31;;;;;;;12.43;6.87;;;;;;;;;;5063530;28;20236;-80
2024/01/08 14:30:58;;;;;;;11.93;6.63;;;;;;;;;;5075934;28;20223;-80
2024/01/08 14:33:25;;;;;;;15.23;6.77;;;;;;;;;;5074249;28;20227;-80
2024/01/08 14:35:53;;;;;;;15.80;7.00;;;;;;;;;;5074384;28;20818;-80
2024/01/08 14:38:20;;;;;;;14.10;6.47;;;;;;;;;;5059408;28;20322;-80